Time;durP1;ratioP1;P1;durP2;ratioP2;P2;SDS_P1;SDS_P2;PMS_P1;PMS_P2;Temp;Humidity;BMP_temperature;BMP_pressure;BME280_temperature;BME280_humidity;BME280_pressure;Samples;Min_cycle;Max_cycle;Signal;HPM_P1;HPM_P2
2023/03/11 00:00:36;;;;;;;16.42;2.70;;;;;;;-1.09;100.00;100581.47;5073755;28;20033;-69
2023/03/11 00:03:03;;;;;;;16.20;3.10;;;;;;;-1.19;100.00;100577.53;5075687;28;20103;-70
2023/03/11 00:05:32;;;;;;;18.35;2.90;;;;;;;-1.27;100.00;100571.09;5075840;28;20032;-71
2023/03/11 00:07:58;;;;;;;16.73;2.90;;;;;;;-1.28;100.00;100572.81;5075721;28;20024;-74
2023/03/11 00:10:33;;;;;;;16.13;2.80;;;;;;;-1.34;100.00;100580.28;5075494;28;20035;-70
2023/03/11 00:12:59;;;;;;;16.13;3.08;;;;;;;-1.40;100.00;100574.78;5075686;28;20459;-71
2023/03/11 00:15:26;;;;;;;15.70;3.03;;;;;;;-1.36;100.00;100579.31;5075372;28;20025;-73
2023/03/11 00:17:51;;;;;;;15.75;2.70;;;;;;;-1.47;100.00;100578.81;5075450;28;20024;-72
2023/03/11 00:20:22;;;;;;;15.57;2.72;;;;;;;-1.49;100.00;100585.59;5075534;28;20467;-73
2023/03/11 00:22:49;;;;;;;16.83;2.83;;;;;;;-1.53;100.00;100586.28;5075820;28;20416;-71
2023/03/11 00:25:15;;;;;;;15.90;2.90;;;;;;;-1.64;100.00;100596.13;5075265;28;20078;-70
2023/03/11 00:27:41;;;;;;;16.92;2.80;;;;;;;-1.68;100.00;100590.72;5075254;28;20029;-70
2023/03/11 00:30:07;;;;;;;16.75;2.97;;;;;;;-1.78;100.00;100591.94;5075303;28;20033;-70
2023/03/11 00:32:33;;;;;;;13.77;2.92;;;;;;;-1.83;100.00;100601.22;5075231;28;20029;-70
2023/03/11 00:34:58;;;;;;;18.60;3.30;;;;;;;-1.88;100.00;100610.44;5075313;28;20024;-69
2023/03/11 00:37:24;;;;;;;17.92;3.30;;;;;;;-2.00;100.00;100613.28;5075070;28;20033;-70
2023/03/11 00:39:49;;;;;;;15.27;3.05;;;;;;;-2.18;100.00;100613.25;5074985;28;20035;-69
2023/03/11 00:42:14;;;;;;;18.83;3.30;;;;;;;-2.23;100.00;100615.56;5075165;28;20033;-69
2023/03/11 00:44:40;;;;;;;17.63;3.22;;;;;;;-2.19;100.00;100624.41;5074942;28;20032;-70
2023/03/11 00:47:05;;;;;;;20.38;3.22;;;;;;;-2.20;100.00;100622.63;5074939;28;20028;-69
2023/03/11 00:49:31;;;;;;;15.27;3.40;;;;;;;-2.19;100.00;100625.28;5075062;28;20025;-70
2023/03/11 00:51:57;;;;;;;16.10;3.60;;;;;;;-2.21;100.00;100615.66;5074658;28;20037;-69
2023/03/11 00:54:22;;;;;;;18.83;3.60;;;;;;;-2.20;100.00;100618.34;5074561;28;20137;-70
2023/03/11 00:56:47;;;;;;;19.98;3.42;;;;;;;-2.19;100.00;100627.88;5075277;28;20028;-71
2023/03/11 00:59:13;;;;;;;18.45;3.65;;;;;;;-2.21;100.00;100629.50;5074683;28;20060;-70
2023/03/11 01:01:38;;;;;;;16.77;3.47;;;;;;;-2.25;100.00;100630.16;5074871;28;20024;-69
2023/03/11 01:04:03;;;;;;;19.23;3.72;;;;;;;-2.29;100.00;100635.97;5074700;28;20479;-70
2023/03/11 01:06:29;;;;;;;18.60;3.75;;;;;;;-2.28;100.00;100650.72;5074613;28;20510;-70
2023/03/11 01:08:54;;;;;;;17.63;3.63;;;;;;;-2.26;100.00;100649.09;5074705;28;20062;-69
2023/03/11 01:11:20;;;;;;;15.90;3.42;;;;;;;-2.20;100.00;100649.44;5073345;28;20040;-70
2023/03/11 01:13:45;;;;;;;15.20;3.50;;;;;;;-2.15;100.00;100652.25;5074391;28;20032;-70
2023/03/11 01:16:10;;;;;;;17.40;3.38;;;;;;;-2.16;100.00;100655.66;5074576;28;20047;-70
2023/03/11 01:18:36;;;;;;;18.00;3.50;;;;;;;-2.17;100.00;100659.03;5074402;28;20031;-69
2023/03/11 01:21:02;;;;;;;16.58;3.70;;;;;;;-2.17;100.00;100657.38;5074189;28;20033;-69
2023/03/11 01:23:27;;;;;;;16.80;3.60;;;;;;;-2.16;100.00;100656.53;5074382;28;20032;-70
2023/03/11 01:25:53;;;;;;;18.13;3.80;;;;;;;-2.15;100.00;100662.63;5074415;28;20448;-70
2023/03/11 01:28:18;;;;;;;17.92;3.72;;;;;;;-2.17;100.00;100666.81;5074094;28;20052;-71
2023/03/11 01:30:44;;;;;;;20.45;3.70;;;;;;;-2.19;100.00;100665.84;5074122;28;20418;-70
2023/03/11 01:33:15;;;;;;;16.95;3.88;;;;;;;-2.20;100.00;100666.66;5074072;28;20020;-69
2023/03/11 01:35:41;;;;;;;19.33;3.80;;;;;;;-2.21;100.00;100667.44;5070516;28;20032;-71
2023/03/11 01:38:06;;;;;;;18.55;3.95;;;;;;;-2.22;100.00;100656.22;5074180;28;20379;-70
2023/03/11 01:40:37;;;;;;;16.33;3.60;;;;;;;-2.26;100.00;100664.63;5073882;28;20028;-69
2023/03/11 01:43:05;;;;;;;17.05;3.53;;;;;;;-2.30;100.00;100658.41;5073819;28;20503;-70
2023/03/11 01:46:01;;;;;;;16.20;3.60;;;;;;;-2.32;100.00;100672.06;5072607;28;20450;-69
2023/03/11 01:48:27;;;;;;;18.10;3.60;;;;;;;-2.35;100.00;100664.16;5072373;28;20040;-69
2023/03/11 01:50:53;;;;;;;18.13;3.80;;;;;;;-2.41;100.00;100663.81;5073732;28;20040;-71
2023/03/11 01:53:19;;;;;;;18.02;3.60;;;;;;;-2.46;100.00;100667.06;5073557;28;20021;-70
2023/03/11 01:55:45;;;;;;;17.23;3.55;;;;;;;-2.46;100.00;100663.59;5073296;28;20045;-70
2023/03/11 01:58:19;;;;;;;16.48;3.63;;;;;;;-2.48;100.00;100671.25;5073713;28;20490;-70
2023/03/11 02:00:45;;;;;;;20.10;3.80;;;;;;;-2.51;100.00;100660.72;5073423;28;20027;-70
2023/03/11 02:03:25;;;;;;;18.00;3.60;;;;;;;-2.52;100.00;100671.00;5073438;28;20147;-70
2023/03/11 02:05:52;;;;;;;16.35;3.70;;;;;;;-2.54;100.00;100670.91;5073343;28;20029;-70
2023/03/11 02:08:18;;;;;;;17.83;3.63;;;;;;;-2.57;100.00;100667.28;5073488;28;20510;-71
2023/03/11 02:10:45;;;;;;;15.95;3.55;;;;;;;-2.58;100.00;100660.31;5073110;28;20032;-69
2023/03/11 02:13:11;;;;;;;17.15;3.42;;;;;;;-2.59;100.00;100662.03;5073469;28;20399;-71
2023/03/11 02:15:36;;;;;;;16.02;3.58;;;;;;;-2.54;100.00;100665.75;5073413;28;20025;-76
2023/03/11 02:18:04;;;;;;;18.50;3.65;;;;;;;-2.46;100.00;100667.06;5073077;28;20033;-69
2023/03/11 02:20:52;;;;;;;20.08;3.70;;;;;;;-2.41;100.00;100669.00;5073066;28;20029;-69
2023/03/11 02:23:22;;;;;;;19.80;3.83;;;;;;;-2.41;100.00;100671.59;5070141;28;20154;-69
2023/03/11 02:26:02;;;;;;;18.10;3.90;;;;;;;-2.45;100.00;100670.53;5073509;28;20025;-70
2023/03/11 02:28:30;;;;;;;16.80;3.60;;;;;;;-2.48;100.00;100673.81;5071941;28;20383;-70
2023/03/11 02:30:56;;;;;;;17.42;3.50;;;;;;;-2.50;100.00;100675.47;5072795;28;20037;-72
2023/03/11 02:33:25;;;;;;;18.50;3.60;;;;;;;-2.52;100.00;100671.91;5072835;28;20025;-70
2023/03/11 02:35:51;;;;;;;17.00;3.55;;;;;;;-2.54;100.00;100680.38;5073063;28;20049;-69
2023/03/11 02:38:16;;;;;;;17.15;3.60;;;;;;;-2.59;100.00;100669.78;5072782;28;20103;-70
2023/03/11 02:40:48;;;;;;;16.45;3.53;;;;;;;-2.64;100.00;100672.13;5072663;28;20043;-70
2023/03/11 02:43:16;;;;;;;16.67;3.85;;;;;;;-2.66;100.00;100667.69;5073157;28;20040;-69
2023/03/11 02:45:45;;;;;;;18.05;4.28;;;;;;;-2.68;100.00;100669.28;5072668;28;20115;-70
2023/03/11 02:48:11;;;;;;;18.40;4.38;;;;;;;-2.70;100.00;100676.94;5072828;28;20032;-72
2023/03/11 02:50:38;;;;;;;16.85;3.72;;;;;;;-2.77;100.00;100680.00;5069087;28;20127;-70
2023/03/11 02:53:05;;;;;;;17.10;4.07;;;;;;;-2.82;100.00;100677.16;5072633;28;20078;-70
2023/03/11 02:55:31;;;;;;;19.05;3.90;;;;;;;-2.86;100.00;100672.63;5072298;28;20068;-70
2023/03/11 02:57:57;;;;;;;18.77;4.55;;;;;;;-2.93;100.00;100665.31;5072776;28;20028;-70
2023/03/11 03:00:22;;;;;;;17.95;4.28;;;;;;;-2.98;100.00;100670.25;5072563;28;20021;-69
2023/03/11 03:02:51;;;;;;;19.58;4.70;;;;;;;-2.96;100.00;100675.50;5072528;28;20475;-70
2023/03/11 03:05:19;;;;;;;18.55;4.05;;;;;;;-3.01;100.00;100674.38;5072595;28;20115;-70
2023/03/11 03:07:46;;;;;;;18.30;4.47;;;;;;;-3.03;100.00;100670.78;5072461;28;20071;-70
2023/03/11 03:10:13;;;;;;;19.27;4.32;;;;;;;-3.07;100.00;100671.41;5072304;28;20530;-70
2023/03/11 03:12:38;;;;;;;19.05;4.78;;;;;;;-3.05;100.00;100672.41;5072636;28;20031;-70
2023/03/11 03:15:04;;;;;;;19.83;4.60;;;;;;;-3.08;100.00;100680.88;5072449;28;20025;-69
2023/03/11 03:17:30;;;;;;;17.55;4.45;;;;;;;-3.14;100.00;100687.41;5072313;28;20033;-70
2023/03/11 03:19:55;;;;;;;20.55;5.00;;;;;;;-3.16;100.00;100685.63;5071304;28;20028;-70
2023/03/11 03:22:20;;;;;;;18.75;5.10;;;;;;;-3.17;100.00;100701.94;5072799;28;20028;-70
2023/03/11 03:24:46;;;;;;;21.73;5.07;;;;;;;-3.19;100.00;100706.16;5072756;28;20116;-69
2023/03/11 03:27:11;;;;;;;18.45;4.65;;;;;;;-3.18;100.00;100712.19;5073272;28;20039;-69
2023/03/11 03:29:36;;;;;;;19.63;4.57;;;;;;;-3.20;100.00;100709.53;5064491;28;20387;-71
2023/03/11 03:32:02;;;;;;;19.65;4.70;;;;;;;-3.21;100.00;100723.25;5072366;28;20028;-69
2023/03/11 03:34:27;;;;;;;19.83;4.70;;;;;;;-3.25;100.00;100723.88;5073385;28;20052;-70
2023/03/11 03:36:52;;;;;;;19.00;4.90;;;;;;;-3.25;100.00;100721.28;5077235;28;20498;-70
2023/03/11 03:39:18;;;;;;;18.92;4.60;;;;;;;-3.24;100.00;100729.97;5077081;28;20052;-73
2023/03/11 03:41:44;;;;;;;19.60;4.75;;;;;;;-3.27;100.00;100728.06;5076576;28;20025;-70
2023/03/11 03:44:10;;;;;;;19.08;4.82;;;;;;;-3.31;100.00;100736.44;5076192;28;20475;-70
2023/03/11 03:46:37;;;;;;;18.98;4.95;;;;;;;-3.33;100.00;100735.47;5075944;28;20033;-69
2023/03/11 03:49:02;;;;;;;18.52;4.70;;;;;;;-3.34;100.00;100738.84;5076121;28;20025;-70
2023/03/11 03:51:28;;;;;;;19.63;4.95;;;;;;;-3.33;100.00;100743.25;5075711;28;20498;-73
2023/03/11 03:53:53;;;;;;;19.48;5.00;;;;;;;-3.33;100.00;100740.66;5075951;28;20029;-71
2023/03/11 03:56:19;;;;;;;19.08;4.68;;;;;;;-3.31;100.00;100740.75;5075702;28;20076;-73
2023/03/11 03:58:44;;;;;;;17.98;4.68;;;;;;;-3.24;100.00;100753.22;5075725;28;20040;-69
2023/03/11 04:01:10;;;;;;;17.27;4.55;;;;;;;-3.19;100.00;100749.19;5075935;28;20039;-71
2023/03/11 04:03:37;;;;;;;19.00;4.60;;;;;;;-3.17;100.00;100747.63;5075537;28;20032;-71
2023/03/11 04:06:07;;;;;;;20.05;4.68;;;;;;;-3.16;100.00;100752.88;5075656;28;20044;-69
2023/03/11 04:08:32;;;;;;;20.25;4.65;;;;;;;-3.16;100.00;100747.69;5075718;28;20040;-72
2023/03/11 04:10:57;;;;;;;19.13;4.50;;;;;;;-3.16;100.00;100754.53;5075396;28;20032;-69
2023/03/11 04:13:23;;;;;;;19.48;4.38;;;;;;;-3.18;100.00;100751.00;5075442;28;20111;-70
2023/03/11 04:15:48;;;;;;;19.83;4.35;;;;;;;-3.18;100.00;100754.47;5075656;28;20043;-70
2023/03/11 04:18:14;;;;;;;18.38;4.47;;;;;;;-3.18;100.00;100749.28;5075425;28;20111;-69
2023/03/11 04:20:39;;;;;;;18.70;4.60;;;;;;;-3.17;100.00;100758.84;5075417;28;20028;-69
2023/03/11 04:23:04;;;;;;;17.70;4.40;;;;;;;-3.16;100.00;100757.13;5075471;28;20040;-70
2023/03/11 04:25:30;;;;;;;17.83;4.40;;;;;;;-3.23;100.00;100757.56;5075232;28;20020;-70
2023/03/11 04:27:55;;;;;;;18.08;4.20;;;;;;;-3.26;100.00;100758.31;5075245;28;20037;-70
2023/03/11 04:30:21;;;;;;;18.25;4.70;;;;;;;-3.30;100.00;100763.22;5075399;28;20028;-69
2023/03/11 04:32:46;;;;;;;18.42;4.30;;;;;;;-3.43;100.00;100765.06;5075441;28;20060;-70
2023/03/11 04:35:12;;;;;;;20.38;5.00;;;;;;;-3.50;100.00;100763.78;5075046;28;20475;-69
2023/03/11 04:37:37;;;;;;;20.73;4.50;;;;;;;-3.45;100.00;100763.19;5071241;28;20029;-69
2023/03/11 04:40:04;;;;;;;19.10;4.30;;;;;;;-3.50;100.00;100766.38;5074941;28;20025;-70
2023/03/11 04:42:30;;;;;;;20.15;4.40;;;;;;;-3.54;100.00;100768.69;5075151;28;20111;-69
2023/03/11 04:44:55;;;;;;;18.67;4.35;;;;;;;-3.60;100.00;100758.88;5075153;28;20112;-69
2023/03/11 04:47:21;;;;;;;18.55;4.53;;;;;;;-3.65;100.00;100768.06;5074494;28;20032;-70
2023/03/11 04:49:46;;;;;;;18.05;4.70;;;;;;;-3.73;100.00;100761.53;5074932;28;20378;-73
2023/03/11 04:52:11;;;;;;;19.40;4.75;;;;;;;-3.75;100.00;100768.31;5074815;28;20094;-70
2023/03/11 04:54:37;;;;;;;18.92;4.50;;;;;;;-3.73;100.00;100766.69;5074357;28;20027;-71
2023/03/11 04:57:02;;;;;;;19.40;4.50;;;;;;;-3.75;100.00;100764.03;5075085;28;20391;-70
2023/03/11 04:59:28;;;;;;;19.80;4.85;;;;;;;-3.75;100.00;100761.44;5075997;28;20040;-73
2023/03/11 05:01:53;;;;;;;18.52;4.70;;;;;;;-3.69;100.00;100773.84;5075248;28;20417;-70
2023/03/11 05:04:18;;;;;;;20.63;4.97;;;;;;;-3.70;100.00;100769.47;5074846;28;20499;-72
2023/03/11 05:06:44;;;;;;;18.45;4.65;;;;;;;-3.73;100.00;100771.88;5074813;28;20024;-72
2023/03/11 05:09:09;;;;;;;19.00;4.53;;;;;;;-3.81;100.00;100765.38;5074467;28;20116;-71
2023/03/11 05:11:34;;;;;;;17.92;4.78;;;;;;;-3.85;100.00;100769.44;5074508;28;20060;-70
2023/03/11 05:14:00;;;;;;;18.25;4.82;;;;;;;-3.91;100.00;100771.66;5074446;28;20029;-70
2023/03/11 05:16:25;;;;;;;18.20;5.32;;;;;;;-3.85;100.00;100777.19;5074169;28;20033;-70
2023/03/11 05:18:51;;;;;;;19.08;5.22;;;;;;;-3.93;100.00;100775.81;5074473;28;20039;-70
2023/03/11 05:21:16;;;;;;;20.73;5.35;;;;;;;-3.92;100.00;100777.59;5074159;28;20446;-70
2023/03/11 05:23:41;;;;;;;19.52;5.30;;;;;;;-3.88;100.00;100780.47;5074435;28;20032;-69
2023/03/11 05:26:07;;;;;;;21.05;5.15;;;;;;;-3.88;100.00;100784.75;5074263;28;20025;-71
2023/03/11 05:28:32;;;;;;;21.23;5.45;;;;;;;-3.87;100.00;100790.00;5074091;28;20063;-71
2023/03/11 05:30:57;;;;;;;19.52;5.28;;;;;;;-3.80;100.00;100788.72;5074163;28;20115;-69
2023/03/11 05:33:23;;;;;;;19.15;5.43;;;;;;;-3.85;100.00;100793.56;5074098;28;20064;-71
2023/03/11 05:35:50;;;;;;;18.90;5.03;;;;;;;-3.86;100.00;100804.72;5074001;28;20067;-77
2023/03/11 05:38:16;;;;;;;19.70;5.20;;;;;;;-3.85;100.00;100803.91;5074407;28;20029;-71
2023/03/11 05:40:41;;;;;;;21.20;5.60;;;;;;;-3.85;100.00;100809.06;5073778;28;20552;-69
2023/03/11 05:43:07;;;;;;;20.15;5.38;;;;;;;-3.85;100.00;100801.31;5073795;28;20033;-75
2023/03/11 05:45:32;;;;;;;20.45;5.55;;;;;;;-3.82;100.00;100810.06;5074067;28;20048;-72
2023/03/11 05:47:57;;;;;;;19.70;5.32;;;;;;;-3.82;100.00;100808.38;5073667;28;20032;-72
2023/03/11 05:50:23;;;;;;;19.67;5.32;;;;;;;-3.87;100.00;100808.09;5073655;28;20111;-71
2023/03/11 05:52:48;;;;;;;21.15;5.60;;;;;;;-3.85;100.00;100813.34;5073720;28;20513;-69
2023/03/11 05:55:13;;;;;;;19.48;5.10;;;;;;;-3.85;100.00;100818.53;5073368;28;20122;-68
2023/03/11 05:57:39;;;;;;;19.77;5.32;;;;;;;-3.87;100.00;100815.84;5073290;28;20399;-70
2023/03/11 06:00:10;;;;;;;19.92;5.13;;;;;;;-3.91;100.00;100821.59;5073463;28;20033;-72
2023/03/11 06:02:36;;;;;;;19.70;5.28;;;;;;;-3.91;100.00;100821.59;5072156;28;20029;-68
2023/03/11 06:05:01;;;;;;;21.75;5.50;;;;;;;-3.96;100.00;100823.03;5073376;28;20097;-70
2023/03/11 06:07:26;;;;;;;20.42;5.53;;;;;;;-3.99;100.00;100825.44;5073618;28;20166;-69
2023/03/11 06:09:52;;;;;;;21.27;5.70;;;;;;;-3.98;100.00;100824.59;5072062;28;20037;-68
2023/03/11 06:12:17;;;;;;;20.92;5.85;;;;;;;-3.95;100.00;100839.41;5072033;28;20037;-69
2023/03/11 06:14:42;;;;;;;20.75;5.88;;;;;;;-3.94;100.00;100839.50;5073357;28;20033;-69
2023/03/11 06:17:08;;;;;;;18.60;5.55;;;;;;;-3.92;100.00;100834.44;5073124;28;20126;-68
2023/03/11 06:19:33;;;;;;;21.80;5.72;;;;;;;-3.89;100.00;100838.13;5073381;28;20036;-68
2023/03/11 06:21:59;;;;;;;21.27;5.78;;;;;;;-3.89;100.00;100843.28;5073142;28;20039;-68
2023/03/11 06:24:24;;;;;;;20.02;5.95;;;;;;;-3.89;100.00;100839.78;5072998;28;20490;-68
2023/03/11 06:26:51;;;;;;;20.95;5.80;;;;;;;-3.88;100.00;100847.63;5073491;28;20020;-69
2023/03/11 06:29:16;;;;;;;18.88;5.82;;;;;;;-3.88;100.00;100846.75;5073074;28;20036;-69
2023/03/11 06:31:42;;;;;;;18.02;5.47;;;;;;;-3.90;100.00;100849.25;5072983;28;20044;-69
2023/03/11 06:34:09;;;;;;;19.58;6.10;;;;;;;-3.91;100.00;100854.31;5073066;28;20441;-68
2023/03/11 06:36:35;;;;;;;21.02;5.80;;;;;;;-3.93;100.00;100845.56;5072873;28;20032;-68
2023/03/11 06:39:00;;;;;;;21.02;6.10;;;;;;;-3.91;100.00;100857.78;5072804;28;20032;-68
2023/03/11 06:41:25;;;;;;;19.98;6.05;;;;;;;-3.88;100.00;100864.84;5072902;28;20336;-69
2023/03/11 06:43:51;;;;;;;22.15;5.93;;;;;;;-3.87;100.00;100866.63;5071566;28;20031;-68
2023/03/11 06:46:19;;;;;;;20.02;5.90;;;;;;;-3.81;100.00;100871.28;5072747;28;20063;-69
2023/03/11 06:48:45;;;;;;;20.02;5.90;;;;;;;-3.75;100.00;100882.00;5072970;28;20025;-70
2023/03/11 06:51:11;;;;;;;21.02;6.25;;;;;;;-3.71;100.00;100884.88;5072685;28;20036;-68
2023/03/11 06:53:36;;;;;;;22.02;6.50;;;;;;;-3.63;100.00;100887.91;5072517;28;20546;-70
2023/03/11 06:56:11;;;;;;;20.77;6.22;;;;;;;-3.56;100.00;100891.78;5072876;28;20045;-69
2023/03/11 06:58:38;;;;;;;19.88;6.10;;;;;;;-3.48;100.00;100897.41;5072730;28;20021;-69
2023/03/11 07:01:10;;;;;;;21.05;6.00;;;;;;;-3.41;100.00;100902.16;5072610;28;20029;-69
2023/03/11 07:03:36;;;;;;;20.00;6.20;;;;;;;-3.31;100.00;100909.69;5072747;28;20028;-69
2023/03/11 07:06:01;;;;;;;21.58;6.60;;;;;;;-3.25;100.00;100912.66;5072489;28;20028;-70
2023/03/11 07:08:26;;;;;;;21.30;6.60;;;;;;;-3.19;100.00;100915.63;5072499;28;20066;-69
2023/03/11 07:10:59;;;;;;;21.60;7.00;;;;;;;-3.09;100.00;100916.19;5072627;28;20032;-69
2023/03/11 07:13:25;;;;;;;18.90;5.97;;;;;;;-3.02;100.00;100921.78;5072653;28;20100;-69
2023/03/11 07:15:59;;;;;;;20.20;6.07;;;;;;;-2.95;100.00;100924.78;5072415;28;20539;-69
2023/03/11 07:18:24;;;;;;;20.63;6.57;;;;;;;-2.89;100.00;100926.03;5072346;28;20021;-69
2023/03/11 07:20:49;;;;;;;21.02;5.93;;;;;;;-2.82;100.00;100924.72;5072506;28;20490;-70
2023/03/11 07:23:15;;;;;;;20.17;5.80;;;;;;;-2.73;100.00;100925.25;5072360;28;20056;-69
2023/03/11 07:25:45;;;;;;;20.95;5.88;;;;;;;-2.60;100.00;100929.44;5072615;28;20085;-69
2023/03/11 07:28:11;;;;;;;20.23;5.50;;;;;;;-2.49;100.00;100936.16;5068607;28;20036;-69
2023/03/11 07:30:38;;;;;;;19.35;5.50;;;;;;;-2.40;100.00;100929.69;5072183;28;20036;-69
2023/03/11 07:33:03;;;;;;;18.73;5.05;;;;;;;-2.25;100.00;100934.91;5072155;28;20028;-69
2023/03/11 07:35:28;;;;;;;19.52;5.20;;;;;;;-2.16;100.00;100933.69;5072399;28;20494;-70
2023/03/11 07:37:54;;;;;;;18.98;5.20;;;;;;;-2.02;100.00;100937.09;5072284;28;20395;-69
2023/03/11 07:40:19;;;;;;;17.95;5.25;;;;;;;-1.91;100.00;100936.81;5072399;28;20111;-69
2023/03/11 07:42:44;;;;;;;18.58;4.80;;;;;;;-1.88;100.00;100937.84;5072118;28;20037;-69
2023/03/11 07:45:10;;;;;;;20.50;5.35;;;;;;;-1.79;100.00;100940.97;5072216;28;20058;-69
2023/03/11 07:47:35;;;;;;;20.13;5.13;;;;;;;-1.67;100.00;100940.75;5072298;28;20033;-69
2023/03/11 07:50:01;;;;;;;20.63;5.40;;;;;;;-1.55;100.00;100948.31;5072103;28;20405;-68
2023/03/11 07:52:29;;;;;;;18.95;5.35;;;;;;;-1.50;100.00;100948.56;5071931;28;20387;-68
2023/03/11 07:54:54;;;;;;;19.58;5.22;;;;;;;-1.42;100.00;100953.38;5071837;28;20052;-69
2023/03/11 07:57:20;;;;;;;18.40;5.10;;;;;;;-1.31;100.00;100958.22;5072352;28;20478;-69
2023/03/11 07:59:45;;;;;;;19.52;4.50;;;;;;;-1.17;100.00;100959.88;5072143;28;20427;-69
2023/03/11 08:02:11;;;;;;;17.70;4.68;;;;;;;-1.07;100.00;100953.47;5072249;28;20395;-69
2023/03/11 08:04:36;;;;;;;19.52;4.80;;;;;;;-0.96;100.00;100956.63;5072204;28;20021;-68
2023/03/11 08:07:01;;;;;;;18.00;4.47;;;;;;;-0.84;100.00;100959.88;5071933;28;20390;-69
2023/03/11 08:09:27;;;;;;;16.85;4.15;;;;;;;-0.72;100.00;100960.50;5072249;28;20145;-69
2023/03/11 08:11:52;;;;;;;18.20;4.20;;;;;;;-0.53;100.00;100966.66;5070496;28;20037;-69
2023/03/11 08:14:17;;;;;;;18.23;4.35;;;;;;;-0.31;100.00;100970.34;5071929;28;20028;-69
2023/03/11 08:16:43;;;;;;;18.15;4.28;;;;;;;-0.17;100.00;100969.34;5072498;28;20112;-70
2023/03/11 08:19:11;;;;;;;19.13;4.22;;;;;;;0.02;100.00;100965.94;5071873;28;20033;-69
2023/03/11 08:21:36;;;;;;;18.15;3.92;;;;;;;0.21;100.00;100974.63;5073671;28;20052;-69
2023/03/11 08:24:02;;;;;;;15.38;4.00;;;;;;;0.44;100.00;100971.41;5075617;28;20474;-69
2023/03/11 08:26:29;;;;;;;18.27;4.10;;;;;;;0.68;100.00;100962.97;5074081;28;20083;-70
2023/03/11 08:28:55;;;;;;;18.23;3.83;;;;;;;1.01;100.00;100966.22;5075474;28;20093;-69
2023/03/11 08:31:24;;;;;;;17.15;3.88;;;;;;;1.32;100.00;100969.31;5075475;28;20024;-70
2023/03/11 08:33:51;;;;;;;17.48;3.60;;;;;;;1.65;100.00;100980.28;5075449;28;20169;-70
2023/03/11 08:36:17;;;;;;;18.05;3.88;;;;;;;1.94;100.00;100970.22;5075124;28;20028;-70
2023/03/11 08:38:42;;;;;;;19.13;3.88;;;;;;;2.02;100.00;100974.00;5075272;28;20036;-70
2023/03/11 08:41:07;;;;;;;16.40;3.30;;;;;;;2.11;100.00;100978.69;5075028;28;20074;-70
2023/03/11 08:43:33;;;;;;;16.33;3.30;;;;;;;2.25;100.00;100981.88;5075290;28;20041;-70
2023/03/11 08:46:00;;;;;;;15.80;3.13;;;;;;;2.38;100.00;100975.44;5074994;28;20029;-73
2023/03/11 08:48:25;;;;;;;16.40;3.20;;;;;;;2.58;100.00;100982.34;5075041;28;20115;-73
2023/03/11 08:50:51;;;;;;;14.98;3.30;;;;;;;2.82;100.00;100983.22;5075276;28;20198;-71
2023/03/11 08:53:16;;;;;;;12.43;2.85;;;;;;;2.93;100.00;100993.25;5075092;28;20460;-72
2023/03/11 08:55:41;;;;;;;14.07;3.00;;;;;;;2.95;100.00;100985.47;5074607;28;20521;-74
2023/03/11 08:58:07;;;;;;;11.60;2.95;;;;;;;3.41;100.00;100988.88;5073785;28;20047;-74
2023/03/11 09:00:32;;;;;;;12.35;2.72;;;;;;;3.63;100.00;100995.75;5074730;28;20033;-73
2023/03/11 09:02:57;;;;;;;11.95;2.50;;;;;;;3.90;100.00;101006.25;5073424;28;20475;-71
2023/03/11 09:05:23;;;;;;;12.68;2.60;;;;;;;3.93;100.00;101011.63;5074770;28;20107;-71
2023/03/11 09:07:48;;;;;;;11.98;2.53;;;;;;;3.95;100.00;101003.81;5074581;28;20021;-71
2023/03/11 09:10:15;;;;;;;11.07;2.78;;;;;;;4.26;100.00;101004.84;5074507;28;20035;-73
2023/03/11 09:12:40;;;;;;;9.18;2.35;;;;;;;4.68;100.00;100994.81;5070548;28;20032;-72
2023/03/11 09:15:07;;;;;;;10.80;2.50;;;;;;;5.10;100.00;101003.94;5074402;28;20056;-74
2023/03/11 09:17:32;;;;;;;13.43;2.55;;;;;;;5.34;100.00;101005.47;5074572;28;20077;-74
2023/03/11 09:19:58;;;;;;;13.02;2.58;;;;;;;5.54;92.69;101006.91;5074496;28;20422;-74
2023/03/11 09:22:23;;;;;;;12.13;2.45;;;;;;;5.51;77.83;101016.44;5074202;28;20432;-71
2023/03/11 09:24:48;;;;;;;8.95;2.20;;;;;;;5.85;84.04;101017.34;5073265;28;20029;-71
2023/03/11 09:27:14;;;;;;;8.82;2.20;;;;;;;5.99;71.90;101023.00;5074228;28;20051;-70
2023/03/11 09:29:40;;;;;;;10.52;2.25;;;;;;;6.20;70.09;101027.91;5074057;28;20029;-73
2023/03/11 09:32:05;;;;;;;7.70;2.20;;;;;;;6.71;64.87;101021.25;5073437;28;20082;-70
2023/03/11 09:34:31;;;;;;;8.38;2.25;;;;;;;6.91;62.64;101032.22;5073973;28;20052;-71
2023/03/11 09:36:56;;;;;;;12.30;2.40;;;;;;;6.86;60.89;101026.84;5074042;28;20089;-75
2023/03/11 09:39:21;;;;;;;7.03;2.00;;;;;;;6.94;59.91;101033.16;5074136;28;20028;-71
2023/03/11 09:42:00;;;;;;;10.27;2.13;;;;;;;7.27;61.56;101018.97;5073859;28;20054;-71
2023/03/11 09:44:50;;;;;;;11.23;2.10;;;;;;;7.99;65.79;101018.56;5073808;28;20036;-74
2023/03/11 09:48:08;;;;;;;7.07;1.98;;;;;;;8.97;60.48;101021.00;5070377;28;20056;-73
2023/03/11 09:50:48;;;;;;;11.00;2.10;;;;;;;9.20;52.97;101029.22;5011859;28;20447;-75
2023/03/11 09:53:34;;;;;;;7.07;1.90;;;;;;;9.30;50.28;101033.75;5008467;28;20499;-70
2023/03/11 09:56:04;;;;;;;11.15;2.10;;;;;;;9.25;51.28;101024.91;5058345;28;20053;-70
2023/03/11 09:58:35;;;;;;;9.02;2.00;;;;;;;9.23;48.94;101024.88;5074091;28;20031;-72
2023/03/11 10:01:02;;;;;;;6.68;2.10;;;;;;;9.20;49.61;101026.59;5073460;28;20091;-71
2023/03/11 10:03:34;;;;;;;9.15;2.20;;;;;;;8.98;50.00;101018.38;5073519;28;20024;-70
2023/03/11 10:06:15;;;;;;;10.27;2.30;;;;;;;8.89;53.35;101023.53;5073617;28;20467;-71
2023/03/11 10:08:47;;;;;;;9.65;2.20;;;;;;;8.40;51.21;101009.59;5073547;28;20036;-72
2023/03/11 10:11:24;;;;;;;12.25;2.30;;;;;;;7.96;53.40;101011.50;5067947;28;20048;-73
2023/03/11 10:14:15;;;;;;;12.40;2.50;;;;;;;7.58;51.61;101016.94;5062635;28;20550;-72
2023/03/11 10:16:56;;;;;;;8.63;2.47;;;;;;;7.30;56.38;101019.03;5059707;28;20036;-71
2023/03/11 10:19:32;;;;;;;11.23;2.20;;;;;;;6.74;53.44;101018.69;5065868;28;20100;-72
2023/03/11 10:22:21;;;;;;;10.80;2.30;;;;;;;6.52;58.67;101023.44;5067664;28;20437;-71
2023/03/11 10:25:04;;;;;;;10.30;2.30;;;;;;;6.27;57.46;101033.34;5066604;28;20484;-72
2023/03/11 10:27:43;;;;;;;;;;;;;;;6.69;59.21;101026.47;5072282;28;20028;-75
2023/03/11 10:30:23;;;;;;;11.07;2.20;;;;;;;7.08;57.08;101030.84;5064833;28;19966;-71
2023/03/11 10:32:59;;;;;;;9.02;2.20;;;;;;;7.25;56.37;101041.72;5067645;28;20033;-77
2023/03/11 10:35:36;;;;;;;9.82;2.33;;;;;;;7.25;55.82;101044.34;5061471;28;20020;-76
2023/03/11 10:38:10;;;;;;;15.45;2.47;;;;;;;7.41;55.79;101036.75;5067973;28;20131;-78
2023/03/11 10:40:40;;;;;;;15.07;2.40;;;;;;;8.09;54.90;101044.19;5067060;28;20051;-75
2023/03/11 10:43:12;;;;;;;12.02;2.40;;;;;;;8.72;50.61;101049.63;5067487;28;20025;-74
2023/03/11 10:45:43;;;;;;;12.27;2.35;;;;;;;8.60;48.97;101050.34;5071780;28;20084;-73
2023/03/11 10:48:14;;;;;;;11.95;2.50;;;;;;;8.22;49.73;101047.06;5073155;28;20071;-76
2023/03/11 10:50:44;;;;;;;11.05;2.40;;;;;;;7.81;49.74;101050.72;5062120;28;20032;-74
2023/03/11 10:53:15;;;;;;;13.30;2.50;;;;;;;7.65;49.60;101044.28;5066164;28;20036;-75
2023/03/11 10:55:52;;;;;;;11.90;2.28;;;;;;;8.02;49.89;101045.84;5073949;28;20050;-70
2023/03/11 10:58:21;;;;;;;9.45;2.30;;;;;;;8.38;47.41;101047.31;5066725;28;20490;-70
2023/03/11 11:01:12;;;;;;;10.32;2.25;;;;;;;9.21;46.97;101038.91;5070681;28;20031;-73
2023/03/11 11:03:41;;;;;;;7.50;2.40;;;;;;;9.89;42.79;101037.06;5068434;28;20060;-74
2023/03/11 11:06:37;;;;;;;9.52;2.40;;;;;;;10.49;46.53;101037.63;5067956;28;20046;-73
2023/03/11 11:09:05;;;;;;;9.50;2.40;;;;;;;10.69;42.98;101035.16;5065848;28;20072;-72
2023/03/11 11:11:32;;;;;;;8.68;2.20;;;;;;;10.25;43.13;101043.56;5065724;28;20091;-72
2023/03/11 11:13:59;;;;;;;13.80;2.50;;;;;;;9.84;44.86;101036.13;5062862;28;20029;-71
2023/03/11 11:16:26;;;;;;;10.25;2.10;;;;;;;9.88;44.55;101043.22;5067574;28;20039;-72